sensor_id;sensor_type;location;lat;lon;timestamp;pressure;altitude;pressure_sealevel;temperature;humidity
10946;BME280;5525;42.648;23.368;2023-01-20T00:01:22;93780.91;;;7.77;100.00
10946;BME280;5525;42.648;23.368;2023-01-20T00:03:51;93799.47;;;7.91;100.00
10946;BME280;5525;42.648;23.368;2023-01-20T00:06:18;93814.13;;;7.93;100.00
10946;BME280;5525;42.648;23.368;2023-01-20T00:08:49;93772.72;;;7.74;100.00
10946;BME280;5525;42.648;23.368;2023-01-20T00:11:17;93811.16;;;7.95;100.00
10946;BME280;5525;42.648;23.368;2023-01-20T00:13:44;93818.56;;;7.98;100.00
10946;BME280;5525;42.648;23.368;2023-01-20T00:16:11;93843.19;;;8.00;100.00
10946;BME280;5525;42.648;23.368;2023-01-20T00:18:40;93826.28;;;7.79;100.00
10946;BME280;5525;42.648;23.368;2023-01-20T00:21:08;93791.59;;;7.86;100.00
10946;BME280;5525;42.648;23.368;2023-01-20T00:23:35;93730.84;;;7.73;100.00
10946;BME280;5525;42.648;23.368;2023-01-20T00:26:03;93676.13;;;7.57;100.00
10946;BME280;5525;42.648;23.368;2023-01-20T00:28:31;93645.63;;;7.41;100.00
10946;BME280;5525;42.648;23.368;2023-01-20T00:30:58;93655.72;;;7.44;100.00
10946;BME280;5525;42.648;23.368;2023-01-20T00:33:25;93657.69;;;7.35;100.00
10946;BME280;5525;42.648;23.368;2023-01-20T00:35:53;93634.75;;;7.17;100.00
10946;BME280;5525;42.648;23.368;2023-01-20T00:38:20;93608.50;;;7.02;100.00
10946;BME280;5525;42.648;23.368;2023-01-20T00:40:52;93610.72;;;7.00;100.00
10946;BME280;5525;42.648;23.368;2023-01-20T00:43:20;93607.53;;;6.85;100.00
10946;BME280;5525;42.648;23.368;2023-01-20T00:45:47;93578.06;;;6.77;100.00
10946;BME280;5525;42.648;23.368;2023-01-20T00:48:14;93573.53;;;6.69;100.00
10946;BME280;5525;42.648;23.368;2023-01-20T00:50:41;93597.31;;;6.79;100.00
10946;BME280;5525;42.648;23.368;2023-01-20T00:53:09;93591.16;;;6.78;100.00
10946;BME280;5525;42.648;23.368;2023-01-20T00:55:35;93589.25;;;6.79;100.00
10946;BME280;5525;42.648;23.368;2023-01-20T00:58:02;93578.19;;;6.80;100.00
10946;BME280;5525;42.648;23.368;2023-01-20T01:00:29;93589.84;;;6.84;100.00
10946;BME280;5525;42.648;23.368;2023-01-20T01:02:56;93582.25;;;6.86;100.00
10946;BME280;5525;42.648;23.368;2023-01-20T01:05:23;93563.28;;;6.71;100.00
10946;BME280;5525;42.648;23.368;2023-01-20T01:07:50;93578.13;;;6.89;100.00
10946;BME280;5525;42.648;23.368;2023-01-20T01:10:18;93555.41;;;6.66;100.00
10946;BME280;5525;42.648;23.368;2023-01-20T01:12:45;93583.56;;;6.80;100.00
10946;BME280;5525;42.648;23.368;2023-01-20T01:15:12;93570.16;;;6.80;100.00
10946;BME280;5525;42.648;23.368;2023-01-20T01:17:39;93544.31;;;6.76;100.00
10946;BME280;5525;42.648;23.368;2023-01-20T01:20:09;93580.63;;;6.94;100.00
10946;BME280;5525;42.648;23.368;2023-01-20T01:22:36;93585.34;;;6.97;100.00
10946;BME280;5525;42.648;23.368;2023-01-20T01:25:04;93579.63;;;6.99;100.00
10946;BME280;5525;42.648;23.368;2023-01-20T01:27:33;93577.88;;;7.03;100.00
10946;BME280;5525;42.648;23.368;2023-01-20T01:30:00;93588.13;;;7.21;100.00
10946;BME280;5525;42.648;23.368;2023-01-20T01:32:27;93571.00;;;7.14;100.00
10946;BME280;5525;42.648;23.368;2023-01-20T01:34:54;93518.25;;;6.76;100.00
10946;BME280;5525;42.648;23.368;2023-01-20T01:37:21;93569.19;;;7.06;100.00
10946;BME280;5525;42.648;23.368;2023-01-20T01:39:48;93571.06;;;7.05;100.00
10946;BME280;5525;42.648;23.368;2023-01-20T01:42:17;93556.47;;;6.94;100.00
10946;BME280;5525;42.648;23.368;2023-01-20T01:45:22;93569.50;;;7.04;100.00
10946;BME280;5525;42.648;23.368;2023-01-20T01:47:59;93571.72;;;7.02;100.00
10946;BME280;5525;42.648;23.368;2023-01-20T01:50:31;93585.38;;;7.09;100.00
10946;BME280;5525;42.648;23.368;2023-01-20T01:53:00;93564.28;;;6.87;100.00
10946;BME280;5525;42.648;23.368;2023-01-20T01:55:29;93598.16;;;7.12;100.00
10946;BME280;5525;42.648;23.368;2023-01-20T01:57:57;93577.16;;;7.14;100.00
10946;BME280;5525;42.648;23.368;2023-01-20T02:00:26;93584.16;;;7.07;100.00
10946;BME280;5525;42.648;23.368;2023-01-20T02:02:54;93596.50;;;7.20;100.00
10946;BME280;5525;42.648;23.368;2023-01-20T02:05:23;93589.63;;;7.31;100.00
10946;BME280;5525;42.648;23.368;2023-01-20T02:07:51;93571.22;;;7.09;100.00
10946;BME280;5525;42.648;23.368;2023-01-20T02:10:18;93568.91;;;7.19;100.00
10946;BME280;5525;42.648;23.368;2023-01-20T02:12:46;93564.56;;;7.27;100.00
10946;BME280;5525;42.648;23.368;2023-01-20T02:15:17;93563.00;;;7.26;100.00
10946;BME280;5525;42.648;23.368;2023-01-20T02:17:55;93541.59;;;7.17;100.00
10946;BME280;5525;42.648;23.368;2023-01-20T02:20:53;93553.91;;;7.18;100.00
10946;BME280;5525;42.648;23.368;2023-01-20T02:23:40;93557.56;;;7.14;100.00
10946;BME280;5525;42.648;23.368;2023-01-20T02:26:28;93555.69;;;7.14;100.00
10946;BME280;5525;42.648;23.368;2023-01-20T02:29:32;93493.84;;;6.90;100.00
10946;BME280;5525;42.648;23.368;2023-01-20T02:32:12;93553.31;;;7.13;100.00
10946;BME280;5525;42.648;23.368;2023-01-20T02:34:45;93540.38;;;7.15;100.00
10946;BME280;5525;42.648;23.368;2023-01-20T02:37:21;93492.03;;;6.82;100.00
10946;BME280;5525;42.648;23.368;2023-01-20T02:39:55;93530.41;;;7.15;100.00
10946;BME280;5525;42.648;23.368;2023-01-20T02:42:31;93530.28;;;7.12;100.00
10946;BME280;5525;42.648;23.368;2023-01-20T02:45:08;93515.56;;;7.18;100.00
10946;BME280;5525;42.648;23.368;2023-01-20T02:47:42;93495.84;;;7.14;100.00
10946;BME280;5525;42.648;23.368;2023-01-20T02:50:14;93497.25;;;7.32;100.00
10946;BME280;5525;42.648;23.368;2023-01-20T02:52:48;93482.75;;;7.12;100.00
10946;BME280;5525;42.648;23.368;2023-01-20T02:55:20;93508.91;;;7.48;100.00
10946;BME280;5525;42.648;23.368;2023-01-20T02:57:52;93486.19;;;7.33;100.00
10946;BME280;5525;42.648;23.368;2023-01-20T03:00:23;93503.56;;;7.48;100.00
10946;BME280;5525;42.648;23.368;2023-01-20T03:02:55;93476.97;;;7.22;100.00
10946;BME280;5525;42.648;23.368;2023-01-20T03:05:27;93501.41;;;7.41;100.00
10946;BME280;5525;42.648;23.368;2023-01-20T03:07:57;93518.56;;;7.49;100.00
10946;BME280;5525;42.648;23.368;2023-01-20T03:10:28;93514.97;;;7.57;100.00
10946;BME280;5525;42.648;23.368;2023-01-20T03:13:01;93514.69;;;7.70;100.00
10946;BME280;5525;42.648;23.368;2023-01-20T03:15:35;93504.16;;;7.65;100.00
10946;BME280;5525;42.648;23.368;2023-01-20T03:18:06;93481.19;;;7.56;100.00
10946;BME280;5525;42.648;23.368;2023-01-20T03:20:33;93482.53;;;7.62;100.00
10946;BME280;5525;42.648;23.368;2023-01-20T03:23:00;93497.56;;;7.75;100.00
10946;BME280;5525;42.648;23.368;2023-01-20T03:25:27;93515.38;;;7.91;100.00
10946;BME280;5525;42.648;23.368;2023-01-20T03:27:54;93514.94;;;7.89;100.00
10946;BME280;5525;42.648;23.368;2023-01-20T03:30:21;93507.19;;;7.76;100.00
10946;BME280;5525;42.648;23.368;2023-01-20T03:32:50;93487.44;;;7.60;100.00
10946;BME280;5525;42.648;23.368;2023-01-20T03:35:19;93487.56;;;7.51;100.00
10946;BME280;5525;42.648;23.368;2023-01-20T03:37:46;93524.84;;;7.65;100.00
10946;BME280;5525;42.648;23.368;2023-01-20T03:40:14;93491.78;;;7.40;100.00
10946;BME280;5525;42.648;23.368;2023-01-20T03:42:46;93492.66;;;7.32;100.00
10946;BME280;5525;42.648;23.368;2023-01-20T03:45:23;93522.69;;;7.46;100.00
10946;BME280;5525;42.648;23.368;2023-01-20T03:47:57;93526.94;;;7.47;100.00
10946;BME280;5525;42.648;23.368;2023-01-20T03:50:34;93520.00;;;7.46;100.00
10946;BME280;5525;42.648;23.368;2023-01-20T03:53:07;93498.06;;;7.44;100.00
10946;BME280;5525;42.648;23.368;2023-01-20T03:55:39;93487.63;;;7.43;100.00
10946;BME280;5525;42.648;23.368;2023-01-20T03:58:09;93479.84;;;7.50;100.00
10946;BME280;5525;42.648;23.368;2023-01-20T04:00:40;93492.47;;;7.49;100.00
10946;BME280;5525;42.648;23.368;2023-01-20T04:03:10;93458.22;;;7.34;100.00
10946;BME280;5525;42.648;23.368;2023-01-20T04:05:41;93445.69;;;7.38;100.00
10946;BME280;5525;42.648;23.368;2023-01-20T04:08:09;93479.38;;;7.48;100.00
10946;BME280;5525;42.648;23.368;2023-01-20T04:10:40;93482.19;;;7.51;100.00
10946;BME280;5525;42.648;23.368;2023-01-20T04:13:08;93460.91;;;7.46;100.00
10946;BME280;5525;42.648;23.368;2023-01-20T04:15:38;93465.28;;;7.51;100.00
10946;BME280;5525;42.648;23.368;2023-01-20T04:18:13;93463.72;;;7.50;100.00
10946;BME280;5525;42.648;23.368;2023-01-20T04:20:42;93452.66;;;7.51;100.00
10946;BME280;5525;42.648;23.368;2023-01-20T04:23:15;93428.81;;;7.38;100.00
10946;BME280;5525;42.648;23.368;2023-01-20T04:25:43;93419.63;;;7.39;100.00
10946;BME280;5525;42.648;23.368;2023-01-20T04:28:11;93390.06;;;7.27;100.00
10946;BME280;5525;42.648;23.368;2023-01-20T04:30:37;93431.03;;;7.48;100.00
10946;BME280;5525;42.648;23.368;2023-01-20T04:33:04;93431.84;;;7.48;100.00
10946;BME280;5525;42.648;23.368;2023-01-20T04:35:31;93437.00;;;7.65;100.00
10946;BME280;5525;42.648;23.368;2023-01-20T04:37:59;93397.03;;;7.52;100.00
10946;BME280;5525;42.648;23.368;2023-01-20T04:40:26;93412.38;;;7.51;100.00
10946;BME280;5525;42.648;23.368;2023-01-20T04:42:53;93430.97;;;7.56;100.00
10946;BME280;5525;42.648;23.368;2023-01-20T04:45:20;93445.94;;;7.57;100.00
10946;BME280;5525;42.648;23.368;2023-01-20T04:47:47;93401.50;;;7.36;100.00
10946;BME280;5525;42.648;23.368;2023-01-20T04:50:15;93437.22;;;7.60;100.00
10946;BME280;5525;42.648;23.368;2023-01-20T04:52:42;93433.53;;;7.53;100.00
10946;BME280;5525;42.648;23.368;2023-01-20T04:55:11;93438.22;;;7.68;100.00
10946;BME280;5525;42.648;23.368;2023-01-20T04:57:37;93403.19;;;7.52;100.00
10946;BME280;5525;42.648;23.368;2023-01-20T05:00:06;93449.63;;;7.77;100.00
10946;BME280;5525;42.648;23.368;2023-01-20T05:02:33;93388.06;;;7.48;100.00
10946;BME280;5525;42.648;23.368;2023-01-20T05:05:00;93453.25;;;7.81;100.00
10946;BME280;5525;42.648;23.368;2023-01-20T05:07:26;93426.34;;;7.57;100.00
10946;BME280;5525;42.648;23.368;2023-01-20T05:09:53;93475.34;;;7.54;100.00
10946;BME280;5525;42.648;23.368;2023-01-20T05:12:21;93477.94;;;7.50;100.00
10946;BME280;5525;42.648;23.368;2023-01-20T05:14:48;93469.91;;;7.62;100.00
10946;BME280;5525;42.648;23.368;2023-01-20T05:17:15;93412.28;;;7.03;100.00
10946;BME280;5525;42.648;23.368;2023-01-20T05:19:42;93445.00;;;7.29;100.00
10946;BME280;5525;42.648;23.368;2023-01-20T05:22:09;93471.53;;;7.43;100.00
10946;BME280;5525;42.648;23.368;2023-01-20T05:24:36;93432.44;;;7.21;100.00
10946;BME280;5525;42.648;23.368;2023-01-20T05:27:03;93470.31;;;7.52;100.00
10946;BME280;5525;42.648;23.368;2023-01-20T05:29:31;93487.41;;;7.36;100.00
10946;BME280;5525;42.648;23.368;2023-01-20T05:31:58;93486.97;;;7.46;100.00
10946;BME280;5525;42.648;23.368;2023-01-20T05:34:25;93486.78;;;7.51;100.00
10946;BME280;5525;42.648;23.368;2023-01-20T05:36:52;93462.25;;;7.40;100.00
10946;BME280;5525;42.648;23.368;2023-01-20T05:39:20;93483.09;;;7.55;100.00
10946;BME280;5525;42.648;23.368;2023-01-20T05:41:48;93489.09;;;7.40;100.00
10946;BME280;5525;42.648;23.368;2023-01-20T05:44:15;93513.72;;;7.42;100.00
10946;BME280;5525;42.648;23.368;2023-01-20T05:46:43;93510.59;;;7.40;100.00
10946;BME280;5525;42.648;23.368;2023-01-20T05:49:10;93489.78;;;7.49;100.00
10946;BME280;5525;42.648;23.368;2023-01-20T05:51:37;93512.66;;;7.67;100.00
10946;BME280;5525;42.648;23.368;2023-01-20T05:54:04;93514.13;;;7.77;100.00
10946;BME280;5525;42.648;23.368;2023-01-20T05:56:31;93461.59;;;7.55;100.00
10946;BME280;5525;42.648;23.368;2023-01-20T05:58:58;93473.72;;;7.73;100.00
10946;BME280;5525;42.648;23.368;2023-01-20T06:01:25;93483.09;;;7.67;100.00
10946;BME280;5525;42.648;23.368;2023-01-20T06:03:53;93481.88;;;7.77;100.00
10946;BME280;5525;42.648;23.368;2023-01-20T06:06:20;93480.66;;;7.74;100.00
10946;BME280;5525;42.648;23.368;2023-01-20T06:08:50;93489.94;;;7.77;100.00
10946;BME280;5525;42.648;23.368;2023-01-20T06:11:17;93471.69;;;7.58;100.00
10946;BME280;5525;42.648;23.368;2023-01-20T06:13:45;93504.38;;;7.72;100.00
10946;BME280;5525;42.648;23.368;2023-01-20T06:16:13;93500.47;;;7.82;100.00
10946;BME280;5525;42.648;23.368;2023-01-20T06:18:40;93485.50;;;7.81;100.00
10946;BME280;5525;42.648;23.368;2023-01-20T06:21:08;93502.50;;;7.73;100.00
10946;BME280;5525;42.648;23.368;2023-01-20T06:23:35;93503.50;;;7.80;100.00
10946;BME280;5525;42.648;23.368;2023-01-20T06:26:04;93487.16;;;7.73;100.00
10946;BME280;5525;42.648;23.368;2023-01-20T06:28:31;93522.09;;;7.85;100.00
10946;BME280;5525;42.648;23.368;2023-01-20T06:31:00;93524.44;;;7.87;100.00
10946;BME280;5525;42.648;23.368;2023-01-20T06:33:27;93518.63;;;7.85;100.00
10946;BME280;5525;42.648;23.368;2023-01-20T06:35:54;93501.47;;;7.77;100.00
10946;BME280;5525;42.648;23.368;2023-01-20T06:38:23;93520.50;;;7.84;100.00
10946;BME280;5525;42.648;23.368;2023-01-20T06:40:56;93506.41;;;7.75;100.00
10946;BME280;5525;42.648;23.368;2023-01-20T06:43:23;93475.03;;;7.67;100.00
10946;BME280;5525;42.648;23.368;2023-01-20T06:45:50;93462.06;;;7.57;100.00
10946;BME280;5525;42.648;23.368;2023-01-20T06:48:17;93460.72;;;7.51;100.00
10946;BME280;5525;42.648;23.368;2023-01-20T06:50:44;93466.75;;;7.48;100.00
10946;BME280;5525;42.648;23.368;2023-01-20T06:53:12;93463.25;;;7.36;100.00
10946;BME280;5525;42.648;23.368;2023-01-20T06:55:42;93463.72;;;7.38;100.00
10946;BME280;5525;42.648;23.368;2023-01-20T06:58:09;93463.72;;;7.38;100.00
10946;BME280;5525;42.648;23.368;2023-01-20T07:00:36;93454.50;;;7.27;100.00
10946;BME280;5525;42.648;23.368;2023-01-20T07:03:05;93461.00;;;7.26;100.00
10946;BME280;5525;42.648;23.368;2023-01-20T07:05:32;93416.75;;;6.99;100.00
10946;BME280;5525;42.648;23.368;2023-01-20T07:07:59;93456.09;;;7.40;100.00
10946;BME280;5525;42.648;23.368;2023-01-20T07:10:27;93472.13;;;7.48;100.00
10946;BME280;5525;42.648;23.368;2023-01-20T07:12:55;93466.88;;;7.52;100.00
10946;BME280;5525;42.648;23.368;2023-01-20T07:15:23;93476.63;;;7.56;100.00
10946;BME280;5525;42.648;23.368;2023-01-20T07:17:49;93446.47;;;7.39;100.00
10946;BME280;5525;42.648;23.368;2023-01-20T07:20:16;93452.09;;;7.58;100.00
10946;BME280;5525;42.648;23.368;2023-01-20T07:22:44;93451.31;;;7.57;100.00
10946;BME280;5525;42.648;23.368;2023-01-20T07:25:10;93420.41;;;7.51;100.00
10946;BME280;5525;42.648;23.368;2023-01-20T07:27:41;93445.06;;;7.53;100.00
10946;BME280;5525;42.648;23.368;2023-01-20T07:30:10;93460.50;;;7.68;100.00
10946;BME280;5525;42.648;23.368;2023-01-20T07:32:37;93475.63;;;7.73;100.00
10946;BME280;5525;42.648;23.368;2023-01-20T07:35:05;93437.41;;;7.43;100.00
10946;BME280;5525;42.648;23.368;2023-01-20T07:37:31;93454.13;;;7.73;100.00
10946;BME280;5525;42.648;23.368;2023-01-20T07:39:58;93466.22;;;7.79;100.00
10946;BME280;5525;42.648;23.368;2023-01-20T07:42:25;93477.44;;;7.81;100.00
10946;BME280;5525;42.648;23.368;2023-01-20T07:44:52;93458.75;;;7.96;100.00
10946;BME280;5525;42.648;23.368;2023-01-20T07:47:20;93418.41;;;7.48;100.00
10946;BME280;5525;42.648;23.368;2023-01-20T07:49:46;93466.91;;;7.88;100.00
10946;BME280;5525;42.648;23.368;2023-01-20T07:52:13;93472.94;;;7.97;100.00
10946;BME280;5525;42.648;23.368;2023-01-20T07:54:40;93466.22;;;7.91;100.00
10946;BME280;5525;42.648;23.368;2023-01-20T07:57:07;93482.59;;;7.98;100.00
10946;BME280;5525;42.648;23.368;2023-01-20T07:59:34;93447.75;;;7.77;100.00
10946;BME280;5525;42.648;23.368;2023-01-20T08:02:01;93467.78;;;7.80;100.00
10946;BME280;5525;42.648;23.368;2023-01-20T08:04:29;93445.16;;;7.57;100.00
10946;BME280;5525;42.648;23.368;2023-01-20T08:06:56;93461.59;;;7.55;100.00
10946;BME280;5525;42.648;23.368;2023-01-20T08:09:23;93452.84;;;7.46;100.00
10946;BME280;5525;42.648;23.368;2023-01-20T08:11:50;93423.97;;;7.19;100.00
10946;BME280;5525;42.648;23.368;2023-01-20T08:14:17;93377.75;;;7.14;100.00
10946;BME280;5525;42.648;23.368;2023-01-20T08:16:45;93426.34;;;7.45;100.00
10946;BME280;5525;42.648;23.368;2023-01-20T08:19:12;93417.28;;;7.37;100.00
10946;BME280;5525;42.648;23.368;2023-01-20T08:21:40;93409.78;;;7.43;100.00
10946;BME280;5525;42.648;23.368;2023-01-20T08:24:09;93420.09;;;7.41;100.00
10946;BME280;5525;42.648;23.368;2023-01-20T08:26:36;93420.41;;;7.39;100.00
10946;BME280;5525;42.648;23.368;2023-01-20T08:29:04;93425.00;;;7.51;100.00
10946;BME280;5525;42.648;23.368;2023-01-20T08:31:31;93430.97;;;7.56;100.00
10946;BME280;5525;42.648;23.368;2023-01-20T08:33:58;93390.75;;;7.48;100.00
10946;BME280;5525;42.648;23.368;2023-01-20T08:36:27;93414.06;;;7.68;100.00
10946;BME280;5525;42.648;23.368;2023-01-20T08:38:56;93343.78;;;7.30;100.00
10946;BME280;5525;42.648;23.368;2023-01-20T08:41:26;93377.22;;;7.68;100.00
10946;BME280;5525;42.648;23.368;2023-01-20T08:43:54;93301.16;;;7.28;100.00
10946;BME280;5525;42.648;23.368;2023-01-20T08:46:25;93380.47;;;7.74;100.00
10946;BME280;5525;42.648;23.368;2023-01-20T08:48:57;93355.16;;;7.63;100.00
10946;BME280;5525;42.648;23.368;2023-01-20T08:51:28;93364.91;;;7.67;100.00
10946;BME280;5525;42.648;23.368;2023-01-20T08:54:00;93376.06;;;7.93;100.00
10946;BME280;5525;42.648;23.368;2023-01-20T08:56:34;93380.31;;;8.06;100.00
10946;BME280;5525;42.648;23.368;2023-01-20T08:59:05;93359.28;;;7.96;100.00
10946;BME280;5525;42.648;23.368;2023-01-20T09:01:33;93331.97;;;7.94;100.00
10946;BME280;5525;42.648;23.368;2023-01-20T09:04:02;93382.84;;;8.39;100.00
10946;BME280;5525;42.648;23.368;2023-01-20T09:06:37;93369.13;;;8.56;100.00
10946;BME280;5525;42.648;23.368;2023-01-20T09:09:15;93357.69;;;8.59;100.00
10946;BME280;5525;42.648;23.368;2023-01-20T09:11:47;93335.72;;;8.29;100.00
10946;BME280;5525;42.648;23.368;2023-01-20T09:14:18;93343.94;;;8.48;100.00
10946;BME280;5525;42.648;23.368;2023-01-20T09:16:46;93318.03;;;8.28;100.00
10946;BME280;5525;42.648;23.368;2023-01-20T09:19:13;93333.88;;;8.45;100.00
10946;BME280;5525;42.648;23.368;2023-01-20T09:21:42;93354.94;;;8.71;100.00
10946;BME280;5525;42.648;23.368;2023-01-20T09:24:18;93357.03;;;8.78;100.00
10946;BME280;5525;42.648;23.368;2023-01-20T09:26:51;93360.50;;;8.78;100.00
10946;BME280;5525;42.648;23.368;2023-01-20T09:29:20;93360.97;;;8.96;100.00
10946;BME280;5525;42.648;23.368;2023-01-20T09:31:50;93344.94;;;8.99;100.00
10946;BME280;5525;42.648;23.368;2023-01-20T09:34:20;93369.72;;;9.51;100.00
10946;BME280;5525;42.648;23.368;2023-01-20T09:36:50;93364.41;;;9.55;100.00
10946;BME280;5525;42.648;23.368;2023-01-20T09:39:20;93360.25;;;9.57;100.00
10946;BME280;5525;42.648;23.368;2023-01-20T09:42:19;93339.47;;;9.58;100.00
10946;BME280;5525;42.648;23.368;2023-01-20T09:45:27;93335.94;;;9.88;100.00
10946;BME280;5525;42.648;23.368;2023-01-20T09:48:05;93312.53;;;9.92;100.00
10946;BME280;5525;42.648;23.368;2023-01-20T09:50:44;93294.44;;;10.08;100.00
10946;BME280;5525;42.648;23.368;2023-01-20T09:53:43;93315.72;;;10.71;100.00
10946;BME280;5525;42.648;23.368;2023-01-20T09:56:14;93314.28;;;11.18;100.00
10946;BME280;5525;42.648;23.368;2023-01-20T09:58:49;93292.59;;;11.60;100.00
10946;BME280;5525;42.648;23.368;2023-01-20T10:01:26;93296.19;;;12.20;100.00
10946;BME280;5525;42.648;23.368;2023-01-20T10:03:57;93290.75;;;12.79;100.00
10946;BME280;5525;42.648;23.368;2023-01-20T10:06:31;93292.22;;;13.06;100.00
10946;BME280;5525;42.648;23.368;2023-01-20T10:09:02;93294.13;;;13.45;100.00
10946;BME280;5525;42.648;23.368;2023-01-20T10:11:33;93276.91;;;13.71;100.00
10946;BME280;5525;42.648;23.368;2023-01-20T10:14:08;93265.50;;;13.48;100.00
10946;BME280;5525;42.648;23.368;2023-01-20T10:16:42;93219.72;;;12.96;100.00
10946;BME280;5525;42.648;23.368;2023-01-20T10:19:15;93225.75;;;12.42;100.00
10946;BME280;5525;42.648;23.368;2023-01-20T10:21:49;93242.97;;;12.01;100.00
10946;BME280;5525;42.648;23.368;2023-01-20T10:24:21;93241.38;;;11.97;100.00
10946;BME280;5525;42.648;23.368;2023-01-20T10:26:54;93257.16;;;12.87;100.00
10946;BME280;5525;42.648;23.368;2023-01-20T10:29:29;93258.75;;;13.28;100.00
10946;BME280;5525;42.648;23.368;2023-01-20T10:32:00;93210.84;;;14.04;100.00
10946;BME280;5525;42.648;23.368;2023-01-20T10:34:33;93239.06;;;13.92;100.00
10946;BME280;5525;42.648;23.368;2023-01-20T10:37:08;93268.78;;;13.71;100.00
10946;BME280;5525;42.648;23.368;2023-01-20T10:39:43;93216.50;;;13.27;100.00
10946;BME280;5525;42.648;23.368;2023-01-20T10:42:15;93255.41;;;13.48;100.00
10946;BME280;5525;42.648;23.368;2023-01-20T10:44:43;93237.00;;;12.84;100.00
10946;BME280;5525;42.648;23.368;2023-01-20T10:47:20;93203.31;;;12.12;100.00
10946;BME280;5525;42.648;23.368;2023-01-20T10:50:10;93251.94;;;12.05;100.00
10946;BME280;5525;42.648;23.368;2023-01-20T10:55:45;93265.28;;;11.42;100.00
10946;BME280;5525;42.648;23.368;2023-01-20T10:58:20;93258.09;;;11.27;100.00
10946;BME280;5525;42.648;23.368;2023-01-20T11:00:49;93252.09;;;11.15;100.00
10946;BME280;5525;42.648;23.368;2023-01-20T11:03:18;93234.69;;;11.12;100.00
10946;BME280;5525;42.648;23.368;2023-01-20T11:05:47;93241.84;;;11.01;100.00
10946;BME280;5525;42.648;23.368;2023-01-20T11:08:16;93245.09;;;11.36;100.00
10946;BME280;5525;42.648;23.368;2023-01-20T11:10:44;93220.69;;;11.55;100.00
10946;BME280;5525;42.648;23.368;2023-01-20T11:13:12;93231.19;;;11.34;100.00
10946;BME280;5525;42.648;23.368;2023-01-20T11:15:44;93252.75;;;11.31;100.00
10946;BME280;5525;42.648;23.368;2023-01-20T11:18:20;93243.31;;;11.21;100.00
10946;BME280;5525;42.648;23.368;2023-01-20T11:20:51;93256.28;;;11.35;100.00
10946;BME280;5525;42.648;23.368;2023-01-20T11:23:21;93233.38;;;11.25;100.00
10946;BME280;5525;42.648;23.368;2023-01-20T11:25:58;93237.41;;;10.90;100.00
10946;BME280;5525;42.648;23.368;2023-01-20T11:28:27;93222.97;;;10.60;100.00
10946;BME280;5525;42.648;23.368;2023-01-20T11:30:59;93229.41;;;10.52;100.00
10946;BME280;5525;42.648;23.368;2023-01-20T11:33:27;93216.00;;;10.17;100.00
10946;BME280;5525;42.648;23.368;2023-01-20T11:36:00;93245.09;;;10.08;100.00
10946;BME280;5525;42.648;23.368;2023-01-20T11:38:30;93244.44;;;9.95;100.00
10946;BME280;5525;42.648;23.368;2023-01-20T11:40:58;93255.94;;;9.58;100.00
10946;BME280;5525;42.648;23.368;2023-01-20T11:43:33;93221.09;;;9.15;100.00
10946;BME280;5525;42.648;23.368;2023-01-20T11:46:20;93264.16;;;8.99;100.00
10946;BME280;5525;42.648;23.368;2023-01-20T11:48:48;93283.72;;;8.96;100.00
10946;BME280;5525;42.648;23.368;2023-01-20T11:51:19;93275.53;;;8.77;100.00
10946;BME280;5525;42.648;23.368;2023-01-20T11:53:47;93280.91;;;8.77;100.00
10946;BME280;5525;42.648;23.368;2023-01-20T11:56:19;93300.78;;;8.73;100.00
10946;BME280;5525;42.648;23.368;2023-01-20T11:58:50;93292.13;;;8.79;100.00
10946;BME280;5525;42.648;23.368;2023-01-20T12:01:23;93260.47;;;8.45;100.00
10946;BME280;5525;42.648;23.368;2023-01-20T12:07:02;93304.75;;;8.63;100.00
10946;BME280;5525;42.648;23.368;2023-01-20T12:09:36;93278.59;;;8.20;100.00
10946;BME280;5525;42.648;23.368;2023-01-20T12:12:11;93310.19;;;8.23;100.00
10946;BME280;5525;42.648;23.368;2023-01-20T12:14:42;93315.72;;;8.42;100.00
10946;BME280;5525;42.648;23.368;2023-01-20T12:17:20;93317.72;;;8.06;100.00
10946;BME280;5525;42.648;23.368;2023-01-20T12:20:01;93300.81;;;8.05;100.00
10946;BME280;5525;42.648;23.368;2023-01-20T12:22:39;93314.50;;;8.00;100.00
10946;BME280;5525;42.648;23.368;2023-01-20T12:25:15;93303.81;;;7.76;100.00
10946;BME280;5525;42.648;23.368;2023-01-20T12:27:47;93307.38;;;7.68;100.00
10946;BME280;5525;42.648;23.368;2023-01-20T12:30:49;93338.38;;;7.78;100.00
10946;BME280;5525;42.648;23.368;2023-01-20T12:33:27;93314.22;;;7.42;100.00
10946;BME280;5525;42.648;23.368;2023-01-20T12:36:20;93334.16;;;7.29;100.00
10946;BME280;5525;42.648;23.368;2023-01-20T12:39:09;93329.13;;;7.39;100.00
10946;BME280;5525;42.648;23.368;2023-01-20T12:41:53;93326.88;;;7.29;100.00
10946;BME280;5525;42.648;23.368;2023-01-20T12:44:29;93351.50;;;7.31;100.00
10946;BME280;5525;42.648;23.368;2023-01-20T12:47:04;93334.09;;;6.48;100.00
10946;BME280;5525;42.648;23.368;2023-01-20T12:49:47;93391.47;;;6.14;100.00
10946;BME280;5525;42.648;23.368;2023-01-20T12:52:26;93383.16;;;5.78;100.00
10946;BME280;5525;42.648;23.368;2023-01-20T12:55:11;93373.31;;;5.41;100.00
10946;BME280;5525;42.648;23.368;2023-01-20T12:57:57;93373.97;;;5.00;100.00
10946;BME280;5525;42.648;23.368;2023-01-20T13:00:50;93389.75;;;4.85;100.00
10946;BME280;5525;42.648;23.368;2023-01-20T13:03:50;93368.72;;;4.66;100.00
10946;BME280;5525;42.648;23.368;2023-01-20T13:06:37;93378.94;;;4.64;100.00
10946;BME280;5525;42.648;23.368;2023-01-20T13:09:27;93390.25;;;4.61;100.00
10946;BME280;5525;42.648;23.368;2023-01-20T13:12:12;93383.50;;;4.55;100.00
10946;BME280;5525;42.648;23.368;2023-01-20T13:14:45;93362.94;;;4.39;100.00
10946;BME280;5525;42.648;23.368;2023-01-20T13:17:18;93352.09;;;4.44;100.00
10946;BME280;5525;42.648;23.368;2023-01-20T13:19:50;93356.06;;;4.38;100.00
10946;BME280;5525;42.648;23.368;2023-01-20T13:22:26;93383.25;;;4.31;100.00
10946;BME280;5525;42.648;23.368;2023-01-20T13:24:56;93379.47;;;4.32;100.00
10946;BME280;5525;42.648;23.368;2023-01-20T13:27:25;93377.41;;;4.29;100.00